Time;durP1;ratioP1;P1;durP2;ratioP2;P2;SDS_P1;SDS_P2;PMS_P1;PMS_P2;Temp;Humidity;BMP_temperature;BMP_pressure;BME280_temperature;BME280_humidity;BME280_pressure;Samples;Min_cycle;Max_cycle;Signal;HPM_P1;HPM_P2
2021/05/03 00:01:44;;;;;;;5.20;4.67;;;3.30;99.90;;;;;;5110491;28;20088;-61
2021/05/03 00:04:10;;;;;;;7.07;4.80;;;3.20;99.90;;;;;;5110269;28;20403;-60
2021/05/03 00:06:35;;;;;;;5.83;4.47;;;3.20;99.90;;;;;;5109612;28;20454;-60
2021/05/03 00:09:01;;;;;;;6.87;5.07;;;3.20;99.90;;;;;;5110269;28;20111;-61
2021/05/03 00:11:27;;;;;;;6.37;5.03;;;3.20;99.90;;;;;;5110454;28;20051;-60
2021/05/03 00:13:53;;;;;;;6.33;4.87;;;3.10;99.90;;;;;;5110002;28;20146;-60
2021/05/03 00:16:18;;;;;;;8.97;5.20;;;3.20;99.90;;;;;;5109634;28;20096;-60
2021/05/03 00:18:44;;;;;;;7.87;5.30;;;3.20;99.90;;;;;;5110165;28;20147;-60
2021/05/03 00:21:10;;;;;;;8.87;4.97;;;3.20;99.90;;;;;;5110060;28;20097;-61
2021/05/03 00:23:36;;;;;;;7.18;4.85;;;3.30;99.90;;;;;;5109992;28;20074;-60
2021/05/03 00:26:08;;;;;;;5.70;5.07;;;3.30;99.90;;;;;;5109705;28;20126;-60
2021/05/03 00:28:34;;;;;;;11.15;5.55;;;3.30;99.90;;;;;;5110052;28;20035;-61
2021/05/03 00:31:00;;;;;;;9.60;5.53;;;3.20;99.90;;;;;;5109833;28;20058;-61
2021/05/03 00:33:25;;;;;;;6.27;5.67;;;3.20;99.90;;;;;;5109891;28;20044;-61
2021/05/03 00:35:51;;;;;;;6.53;4.90;;;3.00;99.90;;;;;;5109427;28;20155;-61
2021/05/03 00:38:17;;;;;;;8.27;5.90;;;3.10;99.90;;;;;;5109545;28;20131;-62
2021/05/03 00:40:43;;;;;;;8.57;5.63;;;3.20;99.90;;;;;;5109648;28;20043;-60
2021/05/03 00:43:10;;;;;;;6.20;5.30;;;3.20;99.90;;;;;;5109786;28;20043;-60
2021/05/03 00:45:35;;;;;;;6.85;5.43;;;3.20;99.90;;;;;;5109561;28;20043;-61
2021/05/03 00:48:01;;;;;;;6.73;5.60;;;3.30;99.90;;;;;;5109582;28;20329;-60
2021/05/03 00:50:29;;;;;;;7.72;5.80;;;3.30;99.90;;;;;;5109478;28;20043;-60
2021/05/03 00:52:57;;;;;;;6.13;5.53;;;3.40;99.90;;;;;;5109715;28;20067;-60
2021/05/03 00:55:24;;;;;;;6.18;5.53;;;3.50;99.90;;;;;;5109403;28;20701;-61
2021/05/03 00:57:50;;;;;;;7.47;5.75;;;3.60;99.90;;;;;;5109113;28;20048;-60
2021/05/03 01:00:16;;;;;;;8.35;5.57;;;3.60;99.90;;;;;;5109548;28;20043;-61
2021/05/03 01:02:42;;;;;;;5.65;5.15;;;3.70;99.90;;;;;;5108961;28;20047;-61
2021/05/03 01:05:09;;;;;;;10.38;5.43;;;3.70;99.90;;;;;;5109111;28;20074;-60
2021/05/03 01:07:35;;;;;;;6.85;5.47;;;3.70;99.90;;;;;;5109079;28;20149;-60
2021/05/03 01:10:04;;;;;;;8.00;5.57;;;3.80;99.90;;;;;;5109312;28;20067;-61
2021/05/03 01:12:31;;;;;;;9.75;5.80;;;3.80;99.90;;;;;;5109151;28;20398;-61
2021/05/03 01:14:57;;;;;;;8.07;5.70;;;3.70;99.90;;;;;;5108949;28;20047;-61
2021/05/03 01:17:33;;;;;;;9.53;5.37;;;3.70;99.90;;;;;;5109257;28;20054;-60
2021/05/03 01:20:14;;;;;;;9.00;6.20;;;3.80;99.90;;;;;;5108756;28;20137;-61
2021/05/03 01:22:40;;;;;;;7.10;5.32;;;3.80;99.90;;;;;;5109110;28;20059;-60
2021/05/03 01:25:08;;;;;;;7.93;6.28;;;3.80;99.90;;;;;;5109026;28;20055;-60
2021/05/03 01:27:35;;;;;;;7.20;5.43;;;3.80;99.90;;;;;;5108579;28;20115;-61
2021/05/03 01:30:10;;;;;;;7.40;5.90;;;3.80;99.90;;;;;;5109000;28;20126;-61
2021/05/03 01:32:36;;;;;;;7.32;5.55;;;3.90;99.90;;;;;;5108539;28;20050;-61
2021/05/03 01:35:02;;;;;;;6.30;5.70;;;3.80;99.90;;;;;;5108406;28;20039;-60
2021/05/03 01:37:28;;;;;;;7.00;6.20;;;3.90;99.90;;;;;;5108735;28;20043;-61
2021/05/03 01:39:54;;;;;;;7.93;5.67;;;3.90;99.90;;;;;;5108748;28;20117;-60
2021/05/03 01:42:22;;;;;;;7.35;5.45;;;3.90;99.90;;;;;;5108878;28;20062;-61
2021/05/03 01:44:48;;;;;;;8.07;5.57;;;4.00;99.90;;;;;;5108634;28;20091;-62
2021/05/03 01:47:14;;;;;;;7.17;5.70;;;4.00;99.90;;;;;;5108423;28;20043;-61
2021/05/03 01:49:41;;;;;;;5.95;5.25;;;4.10;99.90;;;;;;5108585;28;20142;-60
2021/05/03 01:52:07;;;;;;;6.30;5.25;;;4.10;99.90;;;;;;5090107;28;20104;-61
2021/05/03 01:54:33;;;;;;;9.68;5.55;;;4.10;99.90;;;;;;5108618;28;20055;-61
2021/05/03 01:56:59;;;;;;;8.65;5.72;;;4.10;99.90;;;;;;5108812;28;20043;-59
2021/05/03 01:59:32;;;;;;;6.33;5.30;;;4.10;99.90;;;;;;5108585;28;20066;-61
2021/05/03 02:01:58;;;;;;;5.70;5.10;;;4.10;99.90;;;;;;5108407;28;20047;-60
2021/05/03 02:04:23;;;;;;;8.20;5.53;;;4.10;99.90;;;;;;5108373;28;20522;-61
2021/05/03 02:06:49;;;;;;;7.40;5.97;;;4.10;99.90;;;;;;5108292;28;20063;-61
2021/05/03 02:09:15;;;;;;;7.60;5.90;;;4.00;99.90;;;;;;5109130;28;20055;-61
2021/05/03 02:11:41;;;;;;;9.25;5.82;;;4.00;99.90;;;;;;5112549;28;20050;-61
2021/05/03 02:14:09;;;;;;;8.20;5.80;;;4.10;99.90;;;;;;5112440;28;20044;-60
2021/05/03 02:16:35;;;;;;;6.70;5.68;;;4.10;99.90;;;;;;5112203;28;20044;-60
2021/05/03 02:19:00;;;;;;;7.03;5.50;;;4.10;99.90;;;;;;5112507;28;20096;-62
2021/05/03 02:21:26;;;;;;;7.87;5.50;;;4.10;99.90;;;;;;5111991;28;20483;-60
2021/05/03 02:23:53;;;;;;;8.13;5.63;;;4.20;99.90;;;;;;5112414;28;20048;-60
2021/05/03 02:26:19;;;;;;;7.25;5.13;;;4.20;99.90;;;;;;5112261;28;20061;-60
2021/05/03 02:28:45;;;;;;;6.20;5.60;;;4.20;99.90;;;;;;5112116;28;20706;-61
2021/05/03 02:31:11;;;;;;;8.70;5.20;;;4.20;99.90;;;;;;5111732;28;20061;-61
2021/05/03 02:33:37;;;;;;;6.37;5.10;;;4.10;99.90;;;;;;5112131;28;20043;-60
2021/05/03 02:36:03;;;;;;;6.67;5.50;;;4.10;99.90;;;;;;5112014;28;20142;-61
2021/05/03 02:38:30;;;;;;;7.72;5.43;;;4.10;99.90;;;;;;5111987;28;20043;-60
2021/05/03 02:40:56;;;;;;;8.40;6.03;;;4.10;99.90;;;;;;5111829;28;20078;-60
2021/05/03 02:43:22;;;;;;;9.97;5.57;;;4.20;99.90;;;;;;5112110;28;20075;-61
2021/05/03 02:45:48;;;;;;;8.33;5.17;;;4.20;99.90;;;;;;5111804;28;20116;-60
2021/05/03 02:48:13;;;;;;;7.45;5.72;;;4.20;99.90;;;;;;5112209;28;20059;-61
2021/05/03 02:50:39;;;;;;;7.87;5.70;;;4.20;99.90;;;;;;5111585;28;20478;-61
2021/05/03 02:53:05;;;;;;;7.27;5.60;;;4.20;99.90;;;;;;5111700;28;20130;-61
2021/05/03 02:55:31;;;;;;;6.27;5.63;;;4.20;99.90;;;;;;5111635;28;20047;-60
2021/05/03 02:57:57;;;;;;;9.07;6.00;;;4.30;99.90;;;;;;5112206;28;20044;-61
2021/05/03 03:00:35;;;;;;;8.10;6.38;;;4.30;99.90;;;;;;5111370;28;20044;-61
2021/05/03 03:03:03;;;;;;;8.65;6.07;;;4.40;99.90;;;;;;5111704;28;20209;-60
2021/05/03 03:05:29;;;;;;;7.80;5.88;;;4.40;99.90;;;;;;5111758;28;20043;-61
2021/05/03 03:07:57;;;;;;;7.15;6.22;;;4.40;99.90;;;;;;5111370;28;20075;-62
2021/05/03 03:10:22;;;;;;;11.63;6.30;;;4.50;99.90;;;;;;5111484;28;20058;-61
2021/05/03 03:12:49;;;;;;;8.97;6.57;;;4.50;99.90;;;;;;5111431;28;20399;-60
2021/05/03 03:15:18;;;;;;;9.15;6.93;;;4.60;99.90;;;;;;5111382;28;20108;-61
2021/05/03 03:17:48;;;;;;;8.82;7.13;;;4.60;99.90;;;;;;5111250;28;20044;-61
2021/05/03 03:20:15;;;;;;;15.02;6.93;;;4.70;99.90;;;;;;5111195;28;20044;-61
2021/05/03 03:22:41;;;;;;;9.68;7.10;;;4.60;99.90;;;;;;5092518;28;20043;-60
2021/05/03 03:25:07;;;;;;;10.27;7.37;;;4.70;99.90;;;;;;5110936;28;20057;-60
2021/05/03 03:27:33;;;;;;;12.23;7.57;;;4.70;99.90;;;;;;5111067;28;20704;-61
2021/05/03 03:29:59;;;;;;;10.80;7.53;;;4.70;99.90;;;;;;5110819;28;20055;-61
2021/05/03 03:32:25;;;;;;;12.63;8.05;;;4.70;99.90;;;;;;5111032;28;20070;-60
2021/05/03 03:34:51;;;;;;;10.37;7.70;;;4.70;99.90;;;;;;5110641;28;20067;-61
2021/05/03 03:37:17;;;;;;;10.37;7.43;;;4.70;99.90;;;;;;5110610;28;20102;-61
2021/05/03 03:39:43;;;;;;;13.17;7.50;;;4.70;99.90;;;;;;5110866;28;20070;-60
2021/05/03 03:42:09;;;;;;;11.63;8.20;;;4.80;99.90;;;;;;5110516;28;20059;-60
2021/05/03 03:44:34;;;;;;;9.73;7.63;;;4.80;99.90;;;;;;5110507;28;20147;-61
2021/05/03 03:47:00;;;;;;;10.90;8.63;;;4.80;99.90;;;;;;5110643;28;20488;-61
2021/05/03 03:49:26;;;;;;;10.03;8.90;;;4.80;99.90;;;;;;5110800;28;20051;-61
2021/05/03 03:51:52;;;;;;;11.23;8.33;;;4.80;99.90;;;;;;5110558;28;20058;-60
2021/05/03 03:54:17;;;;;;;14.10;9.40;;;4.90;99.90;;;;;;5110015;28;20046;-60
2021/05/03 03:56:44;;;;;;;11.73;10.17;;;4.90;99.90;;;;;;5110407;28;20468;-61
2021/05/03 03:59:11;;;;;;;16.92;10.20;;;4.90;99.90;;;;;;5109773;28;20047;-60
2021/05/03 04:01:37;;;;;;;14.05;9.93;;;4.90;99.90;;;;;;5109616;28;20128;-61
2021/05/03 04:04:11;;;;;;;13.23;10.05;;;4.90;99.90;;;;;;5108965;28;20600;-61
2021/05/03 04:06:52;;;;;;;14.40;11.52;;;4.90;99.90;;;;;;5109386;28;20099;-61
2021/05/03 04:12:13;;;;;;;18.02;12.68;;;4.90;99.90;;;;;;5109965;28;20051;-60
2021/05/03 04:28:00;;;;;;;19.27;13.52;;;4.90;99.90;;;;;;5109695;28;20043;-59
2021/05/03 04:30:25;;;;;;;20.07;14.50;;;4.90;99.90;;;;;;5109830;28;20054;-61
2021/05/03 04:32:51;;;;;;;18.93;14.37;;;4.90;99.90;;;;;;5108935;28;20471;-60
2021/05/03 04:35:17;;;;;;;17.60;14.23;;;5.00;99.90;;;;;;5109498;28;20047;-60
2021/05/03 04:37:43;;;;;;;19.02;13.77;;;5.00;99.90;;;;;;5109786;28;20063;-61
2021/05/03 04:40:09;;;;;;;17.80;14.17;;;5.10;99.90;;;;;;5091041;28;20047;-60
2021/05/03 04:42:35;;;;;;;17.00;13.32;;;5.10;99.90;;;;;;5109474;28;20052;-62
2021/05/03 04:45:01;;;;;;;19.07;13.87;;;5.10;99.90;;;;;;5108930;28;20096;-62
2021/05/03 04:47:27;;;;;;;19.37;14.23;;;5.20;99.90;;;;;;5109654;28;20071;-61
2021/05/03 04:49:52;;;;;;;19.27;13.30;;;5.30;99.90;;;;;;5114832;28;20047;-62
2021/05/03 04:52:18;;;;;;;16.80;13.37;;;5.30;99.90;;;;;;5114559;28;20039;-61
2021/05/03 04:54:44;;;;;;;15.27;12.40;;;5.30;99.90;;;;;;5113343;28;20051;-66
2021/05/03 04:57:09;;;;;;;16.30;12.67;;;5.30;99.90;;;;;;5113780;28;20067;-63
2021/05/03 04:59:35;;;;;;;15.80;12.40;;;5.40;99.90;;;;;;5113581;28;20043;-61
2021/05/03 05:02:01;;;;;;;15.50;11.47;;;5.40;99.90;;;;;;5111575;28;20387;-61
2021/05/03 05:04:26;;;;;;;16.07;12.43;;;5.30;99.90;;;;;;5108442;28;20044;-61
2021/05/03 05:06:55;;;;;;;16.67;11.57;;;5.30;99.90;;;;;;5108973;28;20095;-60
2021/05/03 05:09:21;;;;;;;15.52;12.30;;;5.30;99.90;;;;;;5109015;28;20047;-60
2021/05/03 05:11:46;;;;;;;16.43;11.63;;;5.30;99.90;;;;;;5109134;28;20478;-62
2021/05/03 05:14:12;;;;;;;18.07;11.93;;;5.20;99.90;;;;;;5108408;28;20199;-60
2021/05/03 05:16:38;;;;;;;16.10;11.80;;;5.30;99.90;;;;;;5109195;28;20091;-60
2021/05/03 05:19:04;;;;;;;16.08;12.70;;;5.30;99.90;;;;;;5109108;28;20090;-61
2021/05/03 05:21:30;;;;;;;16.63;11.87;;;5.30;99.90;;;;;;5108976;28;20071;-60
2021/05/03 05:23:56;;;;;;;15.32;12.10;;;5.30;99.90;;;;;;5108531;28;20052;-60
2021/05/03 05:26:21;;;;;;;18.37;13.40;;;5.40;99.90;;;;;;5109089;28;20124;-61
2021/05/03 05:28:48;;;;;;;16.08;13.13;;;5.40;99.90;;;;;;5108898;28;20039;-60
2021/05/03 05:31:14;;;;;;;19.20;13.90;;;5.50;99.90;;;;;;5107918;28;20371;-61
2021/05/03 05:33:39;;;;;;;19.17;14.03;;;5.50;99.90;;;;;;5108084;28;20443;-61
2021/05/03 05:36:05;;;;;;;18.60;14.27;;;5.60;99.90;;;;;;5108396;28;20051;-61
2021/05/03 05:38:31;;;;;;;20.20;14.27;;;5.70;99.90;;;;;;5108831;28;20043;-60
2021/05/03 05:40:57;;;;;;;17.70;13.40;;;5.80;99.90;;;;;;5108904;28;20050;-61
2021/05/03 05:43:22;;;;;;;19.70;14.20;;;5.90;99.90;;;;;;5108683;28;20059;-60
2021/05/03 05:45:48;;;;;;;18.93;14.20;;;6.00;99.90;;;;;;5108347;28;20150;-61
2021/05/03 05:48:14;;;;;;;19.53;13.67;;;6.00;99.90;;;;;;5107725;28;20545;-60
2021/05/03 05:50:40;;;;;;;17.13;13.80;;;6.10;99.90;;;;;;5108786;28;20089;-65
2021/05/03 05:53:05;;;;;;;18.53;13.30;;;6.10;99.90;;;;;;5109488;28;20044;-64
2021/05/03 05:55:31;;;;;;;18.53;12.90;;;6.20;99.90;;;;;;5108662;28;20058;-60
2021/05/03 05:57:57;;;;;;;16.57;13.63;;;6.20;99.90;;;;;;5107475;28;20167;-60
2021/05/03 06:00:23;;;;;;;18.27;13.93;;;6.20;99.90;;;;;;5107148;28;20043;-61
2021/05/03 06:02:48;;;;;;;16.40;13.17;;;6.20;99.90;;;;;;5108540;28;20047;-66
2021/05/03 06:05:15;;;;;;;16.73;14.17;;;6.20;99.90;;;;;;5108940;28;20047;-63
2021/05/03 06:07:40;;;;;;;18.30;13.95;;;6.20;99.90;;;;;;5107307;28;20143;-61
2021/05/03 06:10:07;;;;;;;16.37;13.83;;;6.20;99.90;;;;;;5105416;28;20122;-61
2021/05/03 06:12:33;;;;;;;18.40;14.57;;;6.20;99.90;;;;;;5107604;28;20158;-61
2021/05/03 06:14:59;;;;;;;20.50;14.70;;;6.10;99.90;;;;;;5107420;28;20154;-60
2021/05/03 06:17:24;;;;;;;20.10;14.70;;;6.10;99.90;;;;;;5107403;28;20325;-61
2021/05/03 06:19:50;;;;;;;20.17;15.17;;;6.10;99.90;;;;;;5107166;28;20089;-60
2021/05/03 06:22:17;;;;;;;20.83;15.10;;;6.20;99.90;;;;;;5107442;28;20122;-60
2021/05/03 06:24:43;;;;;;;18.13;14.55;;;6.10;99.90;;;;;;5105758;28;20050;-60
2021/05/03 06:27:10;;;;;;;19.87;14.80;;;6.10;99.90;;;;;;5107032;28;20131;-60
2021/05/03 06:29:37;;;;;;;19.35;14.80;;;6.10;99.90;;;;;;5107633;28;20054;-60
2021/05/03 06:32:03;;;;;;;20.38;15.32;;;6.10;99.90;;;;;;5107777;28;20097;-61
2021/05/03 06:34:31;;;;;;;22.92;15.50;;;6.20;99.90;;;;;;5108043;28;20143;-58
2021/05/03 06:36:58;;;;;;;22.88;15.50;;;6.20;99.90;;;;;;5107223;28;20047;-60
2021/05/03 06:39:24;;;;;;;20.17;15.40;;;6.30;99.90;;;;;;5107560;28;20359;-59
2021/05/03 06:41:50;;;;;;;21.65;15.02;;;6.40;99.90;;;;;;5108466;28;20481;-59
2021/05/03 06:44:16;;;;;;;21.63;16.43;;;6.40;99.90;;;;;;5107674;28;20043;-60
2021/05/03 06:46:43;;;;;;;20.13;15.25;;;6.50;99.90;;;;;;5107514;28;20047;-59
2021/05/03 06:49:09;;;;;;;21.33;15.18;;;6.50;99.90;;;;;;5107552;28;20435;-60
2021/05/03 06:51:35;;;;;;;21.85;15.73;;;6.70;99.90;;;;;;5107331;28;20441;-60
2021/05/03 06:54:01;;;;;;;18.67;15.33;;;6.50;99.90;;;;;;5107752;28;20129;-60
2021/05/03 06:56:27;;;;;;;20.40;15.17;;;6.60;99.90;;;;;;5110327;28;20047;-60
2021/05/03 06:58:53;;;;;;;21.87;16.00;;;6.70;99.90;;;;;;5111591;28;20454;-60
2021/05/03 07:01:18;;;;;;;20.10;15.43;;;6.70;99.90;;;;;;5110507;28;20036;-61
2021/05/03 07:03:44;;;;;;;20.27;16.42;;;6.90;99.90;;;;;;5110040;28;20084;-60
2021/05/03 07:06:10;;;;;;;21.27;16.27;;;7.00;99.90;;;;;;5110119;28;20062;-60
2021/05/03 07:08:36;;;;;;;23.80;15.83;;;7.00;99.90;;;;;;5109823;28;20078;-60
2021/05/03 07:11:08;;;;;;;23.42;16.08;;;7.20;99.90;;;;;;5110541;28;20305;-61
2021/05/03 07:13:36;;;;;;;20.55;16.75;;;7.30;99.90;;;;;;5110729;28;20491;-60
2021/05/03 07:16:01;;;;;;;21.55;17.17;;;7.50;99.90;;;;;;5110500;28;20031;-61
2021/05/03 07:18:27;;;;;;;21.43;17.67;;;7.60;99.90;;;;;;5110343;28;20139;-61
2021/05/03 07:20:53;;;;;;;23.37;17.30;;;7.90;99.90;;;;;;5109560;28;20312;-60
2021/05/03 07:23:19;;;;;;;20.40;16.60;;;8.00;99.90;;;;;;5110921;28;20043;-61
2021/05/03 07:25:45;;;;;;;23.83;17.33;;;8.10;99.90;;;;;;5110386;28;20039;-60
2021/05/03 07:28:10;;;;;;;25.97;17.70;;;8.30;99.90;;;;;;5110695;28;20044;-61
2021/05/03 07:30:37;;;;;;;24.60;17.85;;;8.40;99.90;;;;;;5111011;28;20119;-61
2021/05/03 07:33:03;;;;;;;22.53;17.40;;;8.60;99.90;;;;;;5110781;28;20050;-61
2021/05/03 07:35:29;;;;;;;22.63;18.25;;;8.70;99.90;;;;;;5110481;28;20071;-60
2021/05/03 07:37:54;;;;;;;24.63;17.60;;;8.80;99.90;;;;;;5110591;28;20094;-61
2021/05/03 07:40:20;;;;;;;20.83;17.60;;;8.70;99.90;;;;;;5110263;28;20092;-61
2021/05/03 07:42:46;;;;;;;24.00;17.40;;;8.70;99.90;;;;;;5109848;28;20047;-62
2021/05/03 07:45:14;;;;;;;21.77;17.63;;;8.60;99.90;;;;;;5110207;28;20068;-61
2021/05/03 07:47:41;;;;;;;24.10;18.57;;;8.70;99.90;;;;;;5110187;28;20050;-61
2021/05/03 07:50:07;;;;;;;24.13;19.47;;;8.70;99.90;;;;;;5090770;28;20391;-61
2021/05/03 07:52:33;;;;;;;25.40;18.60;;;8.70;99.90;;;;;;5109009;28;20329;-61
2021/05/03 07:55:00;;;;;;;24.70;19.37;;;8.80;99.90;;;;;;5110313;28;20346;-61
2021/05/03 07:57:28;;;;;;;26.67;19.97;;;8.80;99.90;;;;;;5110698;28;20289;-62
2021/05/03 07:59:54;;;;;;;28.53;19.63;;;8.70;99.90;;;;;;5111511;28;20297;-61
2021/05/03 08:02:20;;;;;;;29.33;21.77;;;8.60;99.90;;;;;;5110402;28;20307;-61
2021/05/03 08:04:46;;;;;;;25.87;20.50;;;8.60;99.90;;;;;;5110573;28;20733;-61
2021/05/03 08:07:12;;;;;;;28.57;22.30;;;8.60;99.90;;;;;;5109094;28;20050;-59
2021/05/03 08:09:39;;;;;;;27.07;21.40;;;8.50;99.90;;;;;;5111785;28;20463;-60
2021/05/03 08:12:06;;;;;;;28.63;21.30;;;8.60;99.90;;;;;;5111509;28;20047;-60
2021/05/03 08:14:32;;;;;;;29.73;22.40;;;8.60;99.90;;;;;;5111509;28;20997;-60
2021/05/03 08:17:04;;;;;;;29.13;22.00;;;8.70;99.90;;;;;;5093059;28;20301;-62
2021/05/03 08:19:34;;;;;;;30.30;22.93;;;8.80;99.90;;;;;;5110361;28;20101;-62
2021/05/03 08:22:01;;;;;;;31.97;23.47;;;9.00;99.90;;;;;;5109366;28;20895;-62
2021/05/03 08:24:28;;;;;;;28.57;22.73;;;9.20;99.90;;;;;;5091210;28;20726;-62
2021/05/03 08:26:54;;;;;;;29.90;23.57;;;9.40;99.90;;;;;;5108802;28;20301;-62
2021/05/03 08:29:20;;;;;;;32.43;22.53;;;9.50;99.90;;;;;;5109248;28;20437;-59
2021/05/03 08:31:46;;;;;;;36.20;25.30;;;9.60;99.90;;;;;;5109514;28;20312;-60
2021/05/03 08:34:12;;;;;;;30.10;22.20;;;9.60;99.90;;;;;;5109469;28;20301;-60
2021/05/03 08:36:38;;;;;;;37.63;25.20;;;9.50;99.90;;;;;;5109223;28;20039;-59
2021/05/03 08:39:05;;;;;;;32.13;24.27;;;9.60;99.90;;;;;;5109812;28;20090;-60
2021/05/03 08:41:33;;;;;;;34.97;26.07;;;9.70;99.90;;;;;;5109417;28;20040;-60
2021/05/03 08:43:59;;;;;;;32.53;26.47;;;9.80;99.90;;;;;;5109162;28;20492;-60
2021/05/03 08:46:29;;;;;;;36.27;26.50;;;10.00;99.90;;;;;;5109400;28;20312;-61
2021/05/03 08:49:03;;;;;;;33.03;25.80;;;10.20;99.90;;;;;;5109085;28;20577;-60
2021/05/03 08:51:46;;;;;;;36.50;25.80;;;10.50;99.90;;;;;;5107919;28;20636;-60
2021/05/03 08:56:43;;;;;;;35.57;27.27;;;10.80;99.90;;;;;;5107938;28;20662;-61
2021/05/03 08:59:08;;;;;;;35.97;27.53;;;11.10;99.90;;;;;;5108887;28;20325;-60
2021/05/03 09:01:35;;;;;;;36.67;28.17;;;11.10;99.90;;;;;;5108995;28;20485;-60
2021/05/03 09:04:01;;;;;;;35.17;27.67;;;11.20;99.90;;;;;;5094980;28;20203;-62
2021/05/03 09:06:27;;;;;;;37.03;27.67;;;11.30;99.90;;;;;;5108986;28;20322;-61
2021/05/03 09:09:05;;;;;;;38.97;29.00;;;11.30;99.90;;;;;;5109112;28;20668;-61
2021/05/03 09:11:31;;;;;;;37.93;28.37;;;11.40;99.90;;;;;;5107787;28;20455;-60
2021/05/03 09:14:07;;;;;;;32.53;27.30;;;11.30;99.90;;;;;;5093617;28;20373;-61
2021/05/03 09:16:33;;;;;;;35.37;27.63;;;11.30;99.90;;;;;;5087464;28;20044;-60
2021/05/03 09:19:01;;;;;;;33.67;27.20;;;11.40;99.90;;;;;;5087071;28;20650;-60
2021/05/03 09:21:32;;;;;;;37.93;27.50;;;11.40;99.90;;;;;;5087175;28;20071;-60
2021/05/03 09:24:16;;;;;;;35.13;26.43;;;11.60;99.90;;;;;;5087427;28;20377;-61
2021/05/03 09:26:52;;;;;;;33.30;27.27;;;11.80;99.90;;;;;;5088020;28;20417;-61
2021/05/03 09:29:28;;;;;;;40.60;28.20;;;12.10;99.90;;;;;;5088310;28;20430;-61
2021/05/03 09:31:56;;;;;;;39.73;27.80;;;12.40;99.90;;;;;;5087938;28;20309;-61
2021/05/03 09:34:48;;;;;;;33.67;25.97;;;12.50;99.90;;;;;;5087906;28;20378;-61
2021/05/03 09:37:26;;;;;;;30.80;25.20;;;12.60;99.90;;;;;;5083334;28;20370;-61
2021/05/03 09:40:16;;;;;;;32.70;24.97;;;12.70;99.90;;;;;;5087623;28;20305;-62
2021/05/03 09:42:53;;;;;;;34.97;25.73;;;12.70;99.90;;;;;;5088440;28;20294;-59
2021/05/03 09:45:30;;;;;;;31.33;25.57;;;12.60;99.90;;;;;;5088290;28;20337;-59
2021/05/03 09:47:57;;;;;;;31.27;24.13;;;12.60;99.90;;;;;;5088829;28;20289;-59
2021/05/03 09:50:29;;;;;;;30.73;24.03;;;12.60;99.90;;;;;;5088537;28;20375;-62
2021/05/03 09:53:08;;;;;;;31.17;24.63;;;12.80;99.90;;;;;;5087610;28;20397;-61
2021/05/03 09:55:37;;;;;;;29.70;24.03;;;13.10;99.90;;;;;;5087664;28;20356;-61
2021/05/03 09:58:23;;;;;;;31.60;23.37;;;13.00;99.90;;;;;;5087609;28;21253;-61
2021/05/03 10:00:50;;;;;;;29.03;23.60;;;13.30;99.90;;;;;;5087715;28;20843;-62
2021/05/03 10:06:09;;;;;;;31.67;22.40;;;13.50;99.80;;;;;;5087492;28;20314;-62
2021/05/03 10:08:37;;;;;;;29.93;22.47;;;13.60;99.90;;;;;;5087657;28;20325;-61
2021/05/03 10:11:10;;;;;;;26.93;20.57;;;13.60;99.90;;;;;;5087558;28;20393;-61
2021/05/03 10:13:40;;;;;;;27.08;21.15;;;13.50;98.10;;;;;;5087510;28;20742;-61
2021/05/03 10:16:07;;;;;;;29.33;20.67;;;13.50;97.20;;;;;;5086597;28;20043;-61
2021/05/03 10:18:39;;;;;;;25.87;20.73;;;13.50;98.70;;;;;;5086686;28;20301;-61
2021/05/03 10:21:10;;;;;;;27.33;20.90;;;13.80;98.40;;;;;;5087068;28;20305;-61
2021/05/03 10:23:38;;;;;;;23.43;19.47;;;13.80;95.70;;;;;;5087269;28;20308;-61
2021/05/03 10:26:05;;;;;;;20.50;17.90;;;13.90;97.40;;;;;;5087313;28;20398;-60
2021/05/03 10:28:31;;;;;;;22.73;17.90;;;14.10;96.50;;;;;;5087370;28;20875;-63
2021/05/03 10:30:58;;;;;;;21.37;17.53;;;14.20;95.70;;;;;;5089253;28;20404;-62
2021/05/03 10:33:36;;;;;;;22.70;17.03;;;14.30;95.10;;;;;;5091076;28;20407;-62
2021/05/03 10:36:03;;;;;;;19.20;16.37;;;14.20;93.40;;;;;;5103907;28;20744;-61
2021/05/03 10:38:32;;;;;;;21.97;16.77;;;14.10;95.00;;;;;;5107203;28;20289;-62
2021/05/03 10:41:02;;;;;;;20.13;16.77;;;14.30;94.90;;;;;;5111231;28;20307;-62
2021/05/03 10:43:41;;;;;;;21.53;16.47;;;14.30;93.80;;;;;;5116242;28;20293;-62
2021/05/03 10:49:05;;;;;;;20.63;16.80;;;14.30;90.50;;;;;;5089375;28;20301;-61
2021/05/03 10:51:47;;;;;;;20.83;16.17;;;14.40;89.60;;;;;;5111154;28;20305;-61
2021/05/03 10:54:25;;;;;;;21.13;15.43;;;14.60;90.20;;;;;;5111753;28;20301;-60
2021/05/03 10:56:56;;;;;;;19.63;15.13;;;14.70;92.20;;;;;;5111640;28;20315;-61
2021/05/03 10:59:22;;;;;;;20.23;15.47;;;14.60;88.50;;;;;;5113612;28;20308;-59
2021/05/03 11:01:57;;;;;;;19.20;15.37;;;14.40;90.20;;;;;;5110679;28;20831;-59
2021/05/03 11:04:30;;;;;;;17.23;14.23;;;14.30;83.00;;;;;;5108010;28;20047;-57
2021/05/03 11:06:55;;;;;;;16.23;14.07;;;14.30;82.50;;;;;;5110616;28;20336;-58
2021/05/03 11:11:59;;;;;;;21.73;17.60;;;14.50;91.30;;;;;;5111064;28;20383;-59
2021/05/03 11:14:29;;;;;;;21.50;17.17;;;14.50;91.60;;;;;;5110844;28;20343;-59
2021/05/03 11:17:11;;;;;;;20.43;17.07;;;14.10;90.60;;;;;;5110743;28;20297;-61
2021/05/03 11:20:04;;;;;;;21.63;17.37;;;14.30;91.40;;;;;;5110819;28;20359;-60
2021/05/03 11:22:51;;;;;;;20.10;16.20;;;14.40;82.60;;;;;;5110543;28;20294;-59
2021/05/03 11:25:27;;;;;;;23.67;15.50;;;14.30;81.20;;;;;;5110923;28;20343;-59
2021/05/03 11:28:07;;;;;;;19.87;16.73;;;14.50;85.80;;;;;;5115203;28;20385;-60
2021/05/03 11:33:35;;;;;;;15.37;13.77;;;14.90;66.20;;;;;;5097699;28;20312;-59
2021/05/03 11:36:11;;;;;;;18.53;14.80;;;14.80;65.70;;;;;;5110776;28;20759;-59
2021/05/03 11:38:56;;;;;;;18.53;14.73;;;15.00;65.80;;;;;;5111178;28;20389;-64
2021/05/03 11:44:18;;;;;;;15.40;11.30;;;14.90;68.90;;;;;;5110259;28;20317;-65
2021/05/03 11:46:44;;;;;;;14.60;10.67;;;14.10;66.70;;;;;;5111231;28;20323;-65
2021/05/03 11:49:10;;;;;;;14.40;7.93;;;13.50;76.40;;;;;;5111250;28;20385;-61
2021/05/03 11:51:57;;;;;;;7.57;5.93;;;12.70;92.00;;;;;;5113421;28;20390;-61
2021/05/03 11:54:25;;;;;;;6.70;5.30;;;11.90;99.90;;;;;;5113504;28;20063;-60
2021/05/03 11:56:59;;;;;;;6.93;6.00;;;11.00;99.90;;;;;;5118138;28;20305;-60
2021/05/03 11:59:26;;;;;;;9.47;6.13;;;10.50;99.90;;;;;;5116362;28;20305;-60
2021/05/03 12:02:13;;;;;;;7.50;6.10;;;10.30;99.90;;;;;;5113916;28;20297;-60
2021/05/03 12:04:42;;;;;;;8.00;6.73;;;10.30;99.90;;;;;;5116507;28;20780;-60
2021/05/03 12:07:17;;;;;;;9.33;7.13;;;10.20;99.90;;;;;;5115225;28;20304;-60
2021/05/03 12:09:44;;;;;;;10.10;7.80;;;10.20;99.90;;;;;;5110905;28;20308;-60
2021/05/03 12:12:10;;;;;;;6.90;5.77;;;9.70;99.90;;;;;;5111646;28;20404;-61
2021/05/03 12:14:49;;;;;;;7.50;6.20;;;9.70;99.90;;;;;;5111249;28;20354;-61
2021/05/03 12:17:23;;;;;;;6.83;6.23;;;9.80;99.90;;;;;;5111131;28;20684;-61
2021/05/03 12:19:51;;;;;;;8.00;5.85;;;9.90;99.90;;;;;;5111555;28;20310;-61
2021/05/03 12:22:18;;;;;;;6.60;5.93;;;10.00;99.90;;;;;;5112933;28;20706;-61
2021/05/03 12:24:45;;;;;;;6.33;5.73;;;10.20;99.90;;;;;;5111358;28;20658;-61
2021/05/03 12:27:11;;;;;;;6.97;6.23;;;10.10;99.90;;;;;;5110988;28;20304;-61
2021/05/03 12:29:40;;;;;;;8.17;5.90;;;10.00;99.90;;;;;;5110892;28;20335;-61
2021/05/03 12:32:15;;;;;;;6.87;6.07;;;10.00;99.90;;;;;;5111173;28;20297;-60
2021/05/03 12:34:45;;;;;;;7.60;6.30;;;10.10;99.90;;;;;;5110678;28;20301;-61
2021/05/03 12:37:14;;;;;;;6.70;6.00;;;10.10;99.90;;;;;;5109690;28;20358;-61
2021/05/03 12:39:58;;;;;;;7.83;6.07;;;10.10;99.90;;;;;;5110206;28;20794;-61
2021/05/03 12:42:31;;;;;;;7.10;6.15;;;9.90;99.90;;;;;;5110073;28;20424;-62
2021/05/03 12:45:00;;;;;;;9.60;6.20;;;9.40;99.90;;;;;;5108803;28;20050;-61
2021/05/03 12:47:46;;;;;;;7.67;6.87;;;9.30;99.90;;;;;;5091377;28;20297;-61
2021/05/03 12:52:55;;;;;;;6.93;5.80;;;9.30;99.90;;;;;;5108477;28;20374;-60
2021/05/03 12:56:11;;;;;;;7.57;5.00;;;9.50;99.90;;;;;;5109245;28;20293;-60
2021/05/03 13:01:21;;;;;;;5.83;5.23;;;10.00;99.90;;;;;;5108033;28;20312;-60
2021/05/03 13:06:55;;;;;;;8.23;6.87;;;9.90;99.90;;;;;;5109314;28;20309;-60
2021/05/03 13:29:24;;;;;;;6.03;5.43;;;11.30;99.90;;;;;;5109626;28;20308;-61
2021/05/03 13:31:50;;;;;;;7.37;6.67;;;11.80;99.90;;;;;;5109086;28;20045;-61
2021/05/03 13:34:18;;;;;;;6.90;6.20;;;12.10;99.90;;;;;;5108792;28;20768;-61
2021/05/03 13:36:47;;;;;;;6.93;5.37;;;11.90;99.90;;;;;;5109437;28;20051;-61
2021/05/03 13:39:16;;;;;;;6.33;5.70;;;12.20;99.90;;;;;;5109684;28;20309;-60
2021/05/03 13:41:43;;;;;;;6.73;5.83;;;12.50;99.90;;;;;;5113350;28;20312;-59
2021/05/03 13:44:11;;;;;;;5.33;4.83;;;12.70;99.90;;;;;;5112777;28;20300;-60
2021/05/03 13:46:37;;;;;;;6.57;4.80;;;12.80;99.90;;;;;;5109264;28;20795;-59
2021/05/03 13:49:05;;;;;;;5.63;5.00;;;12.60;99.90;;;;;;5112073;28;20304;-58
2021/05/03 13:51:31;;;;;;;6.80;5.37;;;12.70;99.90;;;;;;5110262;28;20289;-62